createdAt,value
2022-12-09T00:01:36.089Z,354.58
2022-12-09T00:04:05.475Z,394.20
2022-12-09T00:06:35.361Z,603.95
2022-12-09T00:09:04.707Z,396.88
2022-12-09T00:11:34.349Z,366.92
2022-12-09T00:14:03.644Z,379.65
2022-12-09T00:16:33.052Z,367.00
2022-12-09T00:19:02.354Z,388.15
2022-12-09T00:21:33.773Z,394.80
2022-12-09T00:24:08.153Z,392.75
2022-12-09T00:26:37.569Z,401.95
2022-12-09T00:29:07.275Z,413.98
2022-12-09T00:31:38.528Z,390.05
2022-12-09T00:34:13.722Z,437.63
2022-12-09T00:36:43.321Z,442.25
2022-12-09T00:39:13.377Z,443.55
2022-12-09T00:41:42.612Z,460.23
2022-12-09T00:44:13.244Z,447.45
2022-12-09T00:46:42.575Z,442.75
2022-12-09T00:49:12.686Z,464.25
2022-12-09T00:51:41.832Z,429.42
2022-12-09T00:54:11.085Z,411.42
2022-12-09T00:56:40.346Z,374.05
2022-12-09T00:59:09.979Z,391.00
2022-12-09T01:01:44.524Z,407.17
2022-12-09T01:04:16.183Z,392.60
2022-12-09T01:06:48.519Z,402.85
2022-12-09T01:09:19.644Z,403.33
2022-12-09T01:11:50.618Z,401.38
2022-12-09T01:14:21.246Z,420.17
2022-12-09T01:16:52.527Z,397.13
2022-12-09T01:19:23.183Z,357.60
2022-12-09T01:21:57.624Z,384.15
2022-12-09T01:24:28.137Z,363.90
2022-12-09T01:26:59.166Z,344.75
2022-12-09T01:29:29.925Z,349.38
2022-12-09T01:32:00.972Z,341.63
2022-12-09T01:34:31.398Z,351.13
2022-12-09T01:37:01.889Z,343.77
2022-12-09T01:39:32.423Z,344.42
2022-12-09T01:42:08.067Z,376.67
2022-12-09T01:44:38.371Z,336.98
2022-12-09T01:47:25.020Z,341.90
2022-12-09T01:49:55.747Z,328.13
2022-12-09T01:52:27.419Z,376.23
2022-12-09T01:57:29.022Z,426.25
2022-12-09T01:59:59.203Z,421.92
2022-12-09T02:02:32.099Z,400.90
2022-12-09T02:05:02.955Z,403.48
2022-12-09T02:07:34.427Z,409.30
2022-12-09T02:10:10.585Z,420.08
2022-12-09T02:12:52.382Z,432.60
2022-12-09T02:15:44.976Z,416.33
2022-12-09T02:21:04.567Z,396.63
2022-12-09T02:24:18.040Z,426.88
2022-12-09T02:27:20.830Z,440.00
2022-12-09T02:30:08.472Z,431.02
2022-12-09T02:33:07.381Z,500.48
2022-12-09T02:35:45.831Z,552.25
2022-12-09T02:38:28.283Z,481.48
2022-12-09T02:41:17.164Z,477.73
2022-12-09T02:43:56.290Z,478.88
2022-12-09T02:46:33.570Z,489.05
2022-12-09T02:49:06.937Z,481.77
2022-12-09T02:51:43.406Z,454.02
2022-12-09T02:54:18.916Z,453.65
2022-12-09T02:57:02.922Z,458.77
2022-12-09T02:59:33.820Z,462.08
2022-12-09T03:02:30.236Z,455.33
2022-12-09T03:05:12.587Z,448.73
2022-12-09T03:08:13.412Z,444.13
2022-12-09T03:10:52.229Z,453.67
2022-12-09T03:13:46.883Z,444.35
2022-12-09T03:16:29.803Z,433.65
2022-12-09T03:19:18.591Z,418.20
2022-12-09T03:21:51.870Z,408.38
2022-12-09T03:24:28.365Z,419.60
2022-12-09T03:27:04.102Z,372.92
2022-12-09T03:29:38.824Z,373.85
2022-12-09T03:32:14.655Z,372.77
2022-12-09T03:34:49.441Z,385.30
2022-12-09T03:37:23.353Z,374.83
2022-12-09T03:39:56.622Z,359.17
2022-12-09T03:42:39.736Z,341.17
2022-12-09T03:45:14.073Z,363.67
2022-12-09T03:47:44.500Z,369.13
2022-12-09T03:50:16.535Z,375.38
2022-12-09T03:53:02.873Z,366.90
2022-12-09T03:55:44.669Z,363.65
2022-12-09T03:58:16.369Z,386.85
2022-12-09T04:00:49.132Z,398.10
2022-12-09T04:03:23.468Z,363.02
2022-12-09T04:05:53.649Z,368.00
2022-12-09T04:08:23.371Z,369.88
2022-12-09T04:10:53.397Z,384.15
2022-12-09T04:13:23.085Z,364.42
2022-12-09T04:15:52.948Z,359.02
2022-12-09T04:18:23.309Z,374.48
2022-12-09T04:20:53.018Z,366.83
2022-12-09T04:23:23.312Z,376.83
2022-12-09T04:25:53.104Z,371.02
2022-12-09T04:28:22.471Z,371.35
2022-12-09T04:30:52.456Z,385.27
2022-12-09T04:33:22.879Z,369.85
2022-12-09T04:35:52.810Z,393.70
2022-12-09T04:38:22.176Z,404.25
2022-12-09T04:40:54.216Z,389.27
2022-12-09T04:43:24.060Z,409.85
2022-12-09T04:45:55.102Z,346.45
2022-12-09T04:48:24.834Z,350.05
2022-12-09T04:50:54.851Z,327.67
2022-12-09T04:53:24.947Z,364.83
2022-12-09T04:56:06.496Z,396.65
2022-12-09T04:58:37.219Z,393.45
2022-12-09T05:01:12.088Z,398.50
2022-12-09T05:03:42.757Z,382.08
2022-12-09T05:06:16.458Z,369.92
2022-12-09T05:08:47.913Z,367.73
2022-12-09T05:11:19.461Z,330.60
2022-12-09T05:13:50.336Z,360.15
2022-12-09T05:16:21.436Z,380.17
2022-12-09T05:18:51.738Z,387.77
2022-12-09T05:21:23.061Z,388.85
2022-12-09T05:23:53.600Z,380.30
2022-12-09T05:26:24.949Z,380.52
2022-12-09T05:29:17.892Z,385.48
2022-12-09T05:31:52.542Z,380.02
2022-12-09T05:34:22.895Z,370.95
2022-12-09T05:36:53.059Z,379.60
2022-12-09T05:39:22.733Z,329.13
2022-12-09T05:41:52.352Z,317.58
2022-12-09T05:44:22.019Z,326.75
2022-12-09T05:46:52.071Z,307.48
2022-12-09T05:49:22.242Z,317.92
2022-12-09T05:51:52.076Z,299.73
2022-12-09T05:54:22.371Z,251.65
2022-12-09T05:56:52.105Z,279.42
2022-12-09T05:59:22.684Z,252.50
2022-12-09T06:01:52.824Z,257.70
2022-12-09T06:04:23.657Z,272.90
2022-12-09T06:06:53.553Z,297.98
2022-12-09T06:09:24.191Z,321.52
2022-12-09T06:11:54.129Z,324.67
2022-12-09T06:14:24.162Z,436.15
2022-12-09T06:16:53.907Z,437.95
2022-12-09T06:19:25.321Z,356.20
2022-12-09T06:21:55.437Z,336.77
2022-12-09T06:24:25.741Z,295.48
2022-12-09T06:26:55.784Z,273.05
2022-12-09T06:29:25.762Z,237.27
2022-12-09T06:31:55.612Z,271.50
2022-12-09T06:34:25.730Z,210.80
2022-12-09T06:36:55.998Z,165.80
2022-12-09T06:39:28.027Z,163.40
2022-12-09T06:42:00.628Z,172.00
2022-12-09T06:44:30.777Z,164.77
2022-12-09T06:47:00.543Z,168.20
2022-12-09T06:49:30.826Z,161.98
2022-12-09T06:52:01.217Z,158.15
2022-12-09T06:54:31.064Z,137.60
2022-12-09T06:57:00.723Z,143.68
2022-12-09T06:59:30.565Z,119.70
2022-12-09T07:02:00.830Z,139.60
2022-12-09T07:04:31.187Z,157.57
2022-12-09T07:07:01.514Z,113.65
2022-12-09T07:09:31.670Z,113.30
2022-12-09T07:12:01.686Z,112.93
2022-12-09T07:14:31.340Z,106.13
2022-12-09T07:17:02.422Z,98.20
2022-12-09T07:19:33.052Z,107.40
2022-12-09T07:22:03.646Z,99.03
2022-12-09T07:24:33.413Z,95.07
2022-12-09T07:27:08.102Z,92.05
2022-12-09T07:29:40.261Z,72.05
2022-12-09T07:32:13.144Z,77.32
2022-12-09T07:34:44.077Z,70.43
2022-12-09T07:37:15.124Z,66.68
2022-12-09T07:39:45.577Z,85.70
2022-12-09T07:42:15.711Z,78.88
2022-12-09T07:44:55.221Z,86.03
2022-12-09T07:47:25.549Z,97.88
2022-12-09T07:49:55.255Z,70.97
2022-12-09T07:52:25.903Z,77.38
2022-12-09T07:54:56.403Z,67.93
2022-12-09T07:57:26.754Z,58.15
2022-12-09T07:59:58.126Z,80.15
2022-12-09T08:02:28.401Z,75.70
2022-12-09T08:04:58.428Z,69.00
2022-12-09T08:07:28.585Z,55.15
2022-12-09T08:09:58.910Z,63.53
2022-12-09T08:12:29.585Z,68.80
2022-12-09T08:15:00.212Z,72.55
2022-12-09T08:17:31.784Z,60.22
2022-12-09T08:20:02.258Z,68.68
2022-12-09T08:22:32.463Z,51.08
2022-12-09T08:25:02.013Z,70.13
2022-12-09T08:27:32.454Z,45.95
2022-12-09T08:30:02.603Z,45.80
2022-12-09T08:32:33.461Z,41.10
2022-12-09T08:35:03.654Z,88.60
2022-12-09T08:37:33.421Z,31.15
2022-12-09T08:40:02.854Z,38.97
2022-12-09T08:42:32.885Z,38.25
2022-12-09T08:45:03.183Z,43.67
2022-12-09T08:47:33.829Z,34.83
2022-12-09T08:50:04.112Z,28.05
2022-12-09T08:52:40.106Z,28.15
2022-12-09T08:55:11.491Z,29.60
2022-12-09T08:57:41.803Z,75.13
2022-12-09T09:00:12.483Z,53.90
2022-12-09T09:02:46.643Z,40.30
2022-12-09T09:05:16.991Z,29.67
2022-12-09T09:07:47.898Z,28.70
2022-12-09T09:10:19.122Z,33.30
2022-12-09T09:12:49.284Z,32.03
2022-12-09T09:15:18.716Z,27.98
2022-12-09T09:17:51.604Z,32.17
2022-12-09T09:20:21.859Z,25.55
2022-12-09T09:22:54.102Z,33.13
2022-12-09T09:25:26.268Z,31.95
2022-12-09T09:27:55.980Z,52.85
2022-12-09T09:30:25.479Z,35.17
2022-12-09T09:32:56.076Z,47.15
2022-12-09T09:35:25.424Z,41.20
2022-12-09T09:37:56.172Z,39.08
2022-12-09T09:40:25.863Z,22.45
2022-12-09T09:42:57.409Z,31.10
2022-12-09T09:45:27.500Z,33.95
2022-12-09T09:48:04.017Z,49.97
2022-12-09T09:50:52.459Z,32.05
2022-12-09T09:53:33.603Z,35.55
2022-12-09T09:56:26.906Z,33.42
2022-12-09T09:59:03.520Z,32.33
2022-12-09T10:01:38.266Z,37.63
2022-12-09T10:04:22.332Z,39.92
2022-12-09T10:07:24.999Z,43.63
2022-12-09T10:10:28.547Z,50.03
2022-12-09T10:13:40.836Z,49.63
2022-12-09T10:16:33.049Z,59.60
2022-12-09T10:19:17.984Z,56.72
2022-12-09T10:21:50.462Z,42.45
2022-12-09T10:27:00.836Z,42.20
2022-12-09T10:29:55.933Z,38.13
2022-12-09T10:32:32.721Z,55.13
2022-12-09T10:35:03.760Z,29.65
2022-12-09T10:37:38.254Z,33.20
2022-12-09T10:40:14.819Z,33.38
2022-12-09T10:43:14.458Z,54.08
2022-12-09T10:46:17.220Z,41.17
2022-12-09T10:48:50.538Z,54.03
2022-12-09T10:51:29.168Z,49.95
2022-12-09T10:54:06.352Z,47.05
2022-12-09T10:56:41.915Z,43.67
2022-12-09T10:59:25.924Z,49.13
2022-12-09T11:02:11.073Z,43.30
2022-12-09T11:04:44.460Z,61.60
2022-12-09T11:07:14.861Z,41.70
2022-12-09T11:09:52.272Z,42.25
2022-12-09T11:12:36.726Z,40.17
2022-12-09T11:15:33.286Z,38.65
2022-12-09T11:18:21.258Z,59.63
2022-12-09T11:21:05.074Z,73.68
2022-12-09T11:23:36.900Z,66.57
2022-12-09T11:26:25.883Z,73.35
2022-12-09T11:29:14.268Z,72.65
2022-12-09T11:31:44.897Z,76.80
2022-12-09T11:34:28.382Z,76.07
2022-12-09T11:37:03.788Z,76.50
2022-12-09T11:39:37.008Z,69.13
2022-12-09T11:42:19.810Z,78.95
2022-12-09T11:45:06.331Z,122.43
2022-12-09T11:48:20.329Z,159.52
2022-12-09T11:50:34.658Z,143.38
2022-12-09T11:53:27.037Z,171.25
2022-12-09T11:56:20.035Z,181.70
2022-12-09T11:58:55.897Z,119.50
2022-12-09T12:02:03.472Z,133.73
2022-12-09T12:04:37.968Z,133.95
2022-12-09T12:07:17.329Z,162.98
2022-12-09T12:09:58.197Z,144.38
2022-12-09T12:12:37.638Z,146.98
2022-12-09T12:15:28.330Z,156.25
2022-12-09T12:17:58.716Z,156.18
2022-12-09T12:21:00.024Z,114.43
2022-12-09T12:23:53.015Z,101.07
2022-12-09T12:26:33.340Z,100.05
2022-12-09T12:29:15.279Z,98.32
2022-12-09T12:32:25.257Z,102.27
2022-12-09T12:35:11.148Z,118.75
2022-12-09T12:38:07.586Z,147.60
2022-12-09T12:40:49.440Z,164.73
2022-12-09T12:43:51.946Z,161.03
2022-12-09T12:46:34.059Z,148.85
2022-12-09T12:49:29.223Z,125.78
2022-12-09T12:52:54.236Z,115.53
2022-12-09T12:55:22.215Z,108.00
2022-12-09T12:57:55.497Z,117.28
2022-12-09T13:00:33.686Z,127.60
2022-12-09T13:03:25.554Z,123.30
2022-12-09T13:05:58.558Z,115.57
2022-12-09T13:08:32.568Z,105.22
2022-12-09T13:11:10.286Z,110.72
2022-12-09T13:13:51.131Z,121.18
2022-12-09T13:16:24.209Z,103.40
2022-12-09T13:18:55.334Z,110.30
2022-12-09T13:21:25.734Z,84.35
2022-12-09T13:24:22.983Z,93.75
2022-12-09T13:27:03.390Z,101.93
2022-12-09T13:29:45.973Z,88.47
2022-12-09T13:32:15.529Z,116.93
2022-12-09T13:34:57.772Z,132.02
2022-12-09T13:37:55.849Z,118.88
2022-12-09T13:40:40.377Z,121.50
2022-12-09T13:43:20.604Z,128.25
2022-12-09T13:45:53.284Z,145.48
2022-12-09T13:48:23.372Z,180.90
2022-12-09T13:50:52.972Z,191.10
2022-12-09T13:53:22.523Z,153.40
2022-12-09T13:56:03.852Z,156.88
2022-12-09T13:58:54.313Z,119.72
2022-12-09T14:01:49.742Z,126.13
2022-12-09T14:04:39.197Z,114.75
2022-12-09T14:07:34.811Z,107.55
2022-12-09T14:10:05.900Z,96.47
2022-12-09T14:12:42.556Z,96.13
2022-12-09T14:15:26.417Z,100.65
2022-12-09T14:18:01.846Z,115.10
2022-12-09T14:20:34.845Z,87.70
2022-12-09T14:23:18.008Z,111.43
2022-12-09T14:25:58.790Z,111.13
2022-12-09T14:28:51.540Z,119.18
2022-12-09T14:31:50.089Z,113.53
2022-12-09T14:34:28.712Z,105.93
2022-12-09T14:37:24.375Z,126.15
2022-12-09T14:40:05.449Z,114.93
2022-12-09T14:42:49.908Z,111.28
2022-12-09T14:45:46.105Z,131.15
2022-12-09T14:48:22.574Z,112.93
2022-12-09T14:51:21.034Z,119.57
2022-12-09T14:53:58.209Z,131.02
2022-12-09T14:56:29.659Z,138.95
2022-12-09T14:59:10.599Z,139.98
2022-12-09T15:02:09.460Z,141.75
2022-12-09T15:04:48.245Z,132.82
2022-12-09T15:07:26.179Z,157.70
2022-12-09T15:10:09.609Z,148.23
2022-12-09T15:12:46.748Z,147.13
2022-12-09T15:15:28.029Z,146.07
2022-12-09T15:18:15.534Z,165.90
2022-12-09T15:20:55.889Z,157.15
2022-12-09T15:23:31.045Z,164.43
2022-12-09T15:26:08.668Z,185.65
2022-12-09T15:28:39.513Z,157.75
2022-12-09T15:31:20.992Z,144.40
2022-12-09T15:33:53.372Z,159.32
2022-12-09T15:36:46.679Z,156.95
2022-12-09T15:39:21.798Z,158.18
2022-12-09T15:42:13.404Z,154.68
2022-12-09T15:44:51.628Z,175.18
2022-12-09T15:47:25.775Z,193.27
2022-12-09T15:50:15.803Z,181.60
2022-12-09T15:53:06.501Z,200.18
2022-12-09T15:55:53.047Z,201.18
2022-12-09T15:58:28.667Z,201.32
2022-12-09T16:00:59.399Z,206.43
2022-12-09T16:03:32.787Z,210.60
2022-12-09T16:06:08.542Z,230.93
2022-12-09T16:08:47.253Z,220.82
2022-12-09T16:11:37.168Z,230.80
2022-12-09T16:14:09.763Z,240.57
2022-12-09T16:16:52.339Z,266.42
2022-12-09T16:19:42.318Z,239.55
2022-12-09T16:22:30.158Z,227.20
2022-12-09T16:25:14.597Z,237.88
2022-12-09T16:27:50.420Z,239.38
2022-12-09T16:30:26.594Z,195.70
2022-12-09T16:33:02.571Z,210.05
2022-12-09T16:35:48.179Z,193.23
2022-12-09T16:38:20.878Z,191.60
2022-12-09T16:43:28.884Z,142.70
2022-12-09T16:46:02.174Z,143.98
2022-12-09T16:48:32.778Z,135.02
2022-12-09T16:51:12.279Z,127.07
2022-12-09T16:54:19.702Z,119.70
2022-12-09T16:56:50.881Z,132.15
2022-12-09T16:59:20.518Z,127.38
2022-12-09T17:01:50.701Z,120.07
2022-12-09T17:04:26.736Z,128.48
2022-12-09T17:06:56.607Z,140.20
2022-12-09T17:09:26.631Z,119.07
2022-12-09T17:11:56.518Z,129.13
2022-12-09T17:14:27.093Z,116.95
2022-12-09T17:16:57.515Z,113.10
2022-12-09T17:19:28.360Z,115.00
2022-12-09T17:21:59.081Z,114.25
2022-12-09T17:24:30.714Z,123.95
2022-12-09T17:27:01.386Z,115.35
2022-12-09T17:29:31.934Z,122.65
2022-12-09T17:32:02.267Z,162.52
2022-12-09T17:34:32.290Z,128.30
2022-12-09T17:37:02.279Z,137.07
2022-12-09T17:39:32.229Z,120.90
2022-12-09T17:42:02.444Z,136.02
2022-12-09T17:44:32.375Z,142.98
2022-12-09T17:47:02.472Z,138.10
2022-12-09T17:49:32.671Z,136.27
2022-12-09T17:52:02.395Z,122.68
2022-12-09T17:54:32.415Z,124.20
2022-12-09T17:57:02.011Z,126.60
2022-12-09T17:59:31.868Z,135.98
2022-12-09T18:02:04.519Z,146.18
2022-12-09T18:04:34.783Z,132.57
2022-12-09T18:07:06.483Z,147.18
2022-12-09T18:09:36.278Z,143.87
2022-12-09T18:12:06.146Z,143.50
2022-12-09T18:14:36.145Z,152.68
2022-12-09T18:17:06.387Z,130.18
2022-12-09T18:19:36.759Z,146.25
2022-12-09T18:22:06.717Z,145.43
2022-12-09T18:24:36.515Z,140.10
2022-12-09T18:27:06.441Z,142.40
2022-12-09T18:29:38.259Z,142.20
2022-12-09T18:32:08.139Z,140.10
2022-12-09T18:34:38.116Z,139.65
2022-12-09T18:37:07.716Z,136.05
2022-12-09T18:39:38.809Z,172.68
2022-12-09T18:42:10.155Z,146.35
2022-12-09T18:44:39.943Z,161.10
2022-12-09T18:47:09.578Z,178.90
2022-12-09T18:49:42.346Z,155.75
2022-12-09T18:52:14.235Z,132.93
2022-12-09T18:54:45.772Z,143.48
2022-12-09T18:57:18.910Z,132.50
2022-12-09T18:59:51.800Z,131.55
2022-12-09T19:02:23.577Z,145.90
2022-12-09T19:04:57.395Z,142.77
2022-12-09T19:07:32.549Z,130.82
2022-12-09T19:10:03.363Z,160.20
2022-12-09T19:12:52.668Z,152.93
2022-12-09T19:15:24.072Z,161.02
2022-12-09T19:17:53.776Z,164.93
2022-12-09T19:20:24.470Z,168.00
2022-12-09T19:22:54.287Z,158.38
2022-12-09T19:25:24.416Z,164.50
2022-12-09T19:27:54.257Z,155.80
2022-12-09T19:30:24.064Z,151.38
2022-12-09T19:32:55.203Z,177.40
2022-12-09T19:35:24.850Z,181.73
2022-12-09T19:37:59.512Z,184.88
2022-12-09T19:40:31.033Z,176.07
2022-12-09T19:43:00.605Z,187.73
2022-12-09T19:45:30.848Z,183.65
2022-12-09T19:48:00.407Z,191.40
2022-12-09T19:50:30.295Z,183.38
2022-12-09T19:53:00.481Z,194.85
2022-12-09T19:55:30.336Z,183.63
2022-12-09T19:58:00.113Z,194.00
2022-12-09T20:00:29.808Z,386.55
2022-12-09T20:03:01.563Z,428.60
2022-12-09T20:05:31.292Z,405.40
2022-12-09T20:08:00.979Z,317.00
2022-12-09T20:10:30.632Z,272.17
2022-12-09T20:13:01.025Z,287.60
2022-12-09T20:15:30.627Z,248.15
2022-12-09T20:18:00.092Z,267.65
2022-12-09T20:20:29.821Z,223.52
2022-12-09T20:22:59.613Z,244.90
2022-12-09T20:25:29.617Z,265.30
2022-12-09T20:27:59.476Z,262.58
2022-12-09T20:30:30.797Z,245.00
2022-12-09T20:33:01.100Z,250.50
2022-12-09T20:35:30.753Z,271.88
2022-12-09T20:38:00.339Z,251.88
2022-12-09T20:40:30.118Z,266.40
2022-12-09T20:42:59.886Z,260.80
2022-12-09T20:45:29.455Z,270.55
2022-12-09T20:47:59.283Z,282.83
2022-12-09T20:50:31.188Z,266.08
2022-12-09T20:53:05.084Z,266.23
2022-12-09T20:55:34.767Z,275.73
2022-12-09T20:58:04.384Z,299.02
2022-12-09T21:00:34.077Z,268.35
2022-12-09T21:03:03.567Z,292.80
2022-12-09T21:05:33.425Z,300.60
2022-12-09T21:08:03.094Z,292.13
2022-12-09T21:10:33.047Z,320.75
2022-12-09T21:13:02.885Z,322.33
2022-12-09T21:15:32.958Z,318.30
2022-12-09T21:18:02.579Z,311.75
2022-12-09T21:20:31.848Z,317.05
2022-12-09T21:23:32.364Z,308.23
2022-12-09T21:25:51.296Z,341.00
2022-12-09T21:28:21.138Z,354.40
2022-12-09T21:30:50.767Z,330.80
2022-12-09T21:33:20.629Z,359.95
2022-12-09T21:35:50.488Z,340.45
2022-12-09T21:38:20.067Z,378.75
2022-12-09T21:40:50.164Z,359.15
2022-12-09T21:43:20.055Z,385.70
2022-12-09T21:45:49.674Z,385.30
2022-12-09T21:48:19.605Z,394.83
2022-12-09T21:50:56.270Z,381.42
2022-12-09T21:53:26.174Z,391.55
2022-12-09T21:55:55.877Z,397.33
2022-12-09T21:58:25.794Z,405.05
2022-12-09T22:00:55.423Z,398.98
2022-12-09T22:03:25.390Z,398.73
2022-12-09T22:05:58.315Z,395.50
2022-12-09T22:08:28.685Z,402.70
2022-12-09T22:10:59.730Z,412.60
2022-12-09T22:13:31.896Z,401.60
2022-12-09T22:16:25.076Z,397.77
2022-12-09T22:18:57.356Z,434.15
2022-12-09T22:21:30.318Z,409.75
2022-12-09T22:24:04.115Z,354.58
2022-12-09T22:26:34.653Z,303.15
2022-12-09T22:29:08.235Z,284.67
2022-12-09T22:31:40.506Z,239.48
2022-12-09T22:34:14.016Z,252.70
2022-12-09T22:36:44.624Z,234.27
2022-12-09T22:39:17.609Z,211.10
2022-12-09T22:41:47.853Z,209.98
2022-12-09T22:44:20.006Z,228.00
2022-12-09T22:46:49.929Z,207.05
2022-12-09T22:49:20.518Z,188.75
2022-12-09T22:51:50.463Z,196.65
2022-12-09T22:54:20.304Z,183.30
2022-12-09T22:56:50.015Z,176.82
2022-12-09T22:59:21.372Z,166.20
2022-12-09T23:01:52.694Z,188.68
2022-12-09T23:04:26.178Z,174.57
2022-12-09T23:06:56.023Z,182.13
2022-12-09T23:09:26.804Z,178.80
2022-12-09T23:11:56.548Z,190.48
2022-12-09T23:14:25.845Z,199.45
2022-12-09T23:16:55.733Z,191.68
2022-12-09T23:19:25.241Z,212.70
2022-12-09T23:21:54.730Z,209.60
2022-12-09T23:24:25.165Z,221.13
2022-12-09T23:26:57.190Z,214.02
2022-12-09T23:29:27.174Z,229.40
2022-12-09T23:31:56.909Z,223.73
2022-12-09T23:34:27.694Z,218.48
2022-12-09T23:36:57.435Z,200.40
2022-12-09T23:39:26.757Z,200.75
2022-12-09T23:42:17.625Z,257.33
2022-12-09T23:44:47.624Z,218.65
2022-12-09T23:47:17.892Z,189.85
2022-12-09T23:49:47.938Z,190.95
2022-12-09T23:52:17.556Z,197.90
2022-12-09T23:54:47.308Z,183.43
2022-12-09T23:57:16.860Z,200.15
2022-12-09T23:59:46.293Z,225.00
